UTDD

Details ICAO UTDD (DYU)
Name DUSHANBE
Region Tajikistan, Turkmenistan and Uzbekistan
Timezone Asia/Dushanbe (UTC+5.0)
Plans Departing 119
Arriving 130
Stats Elevation 2,575 ft / 785 m (AMSL)
Location 38.543500° 68.824600°
Runways 1
Magnetic Variation 4.493° E
Sunrise 2018-10-19 01:38:24 UTC / 2018-10-19 06:38:24 Local
Sunset 2018-10-19 12:43:20 UTC / 2018-10-19 17:43:20 Local
Advertisement - Login to hide

Runways

ID Width Length Bearing (true/mag) Surface Threshold Overrun Markings Lighting
09 147 ft / 45 m 10,157 ft / 3,096 m 90.06° / 85.57° ASPHALT 0 ft / 0 m 0 ft / 0 m APP EDGE THRESHOLD SALS
27 147 ft / 45 m 10,157 ft / 3,096 m 270.08° / 265.59° ASPHALT 1,335 ft / 407 m 0 ft / 0 m APP EDGE THRESHOLD

Map

Weather


0- 5 10 15 20 25 30 35+ Temperature / °C

Clouds and Precipitation
Forecast for 2018-10-19 06:00 UTC. Updated 5 hours ago

Ground ~20,000 ft ~40,000 ft Winds

METAR

UTDD 190830Z VRB01MPS 9999 NSC 18/M01 Q1025 R09/CLRD// NOSIG RMK QFE700/0933

TAF

TAF TAF UTDD 190600Z 1907/1919 VRB02MPS 6000 FEW066CB BKN120 TEMPO 1907/1916 27005MPS

Frequencies

Recorded 126.20 MHz ATIS
Tower 119.20 MHz
Ground 121.70 MHz
Approach 127.10 MHz
Warning: Do not use this data for real-world aviation or navigation. No guarantee of current accuracy is given.